Time;durP1;ratioP1;P1;durP2;ratioP2;P2;SDS_P1;SDS_P2;PMS_P1;PMS_P2;Temp;Humidity;BMP_temperature;BMP_pressure;BME280_temperature;BME280_humidity;BME280_pressure;Samples;Min_cycle;Max_cycle;Signal;HPM_P1;HPM_P2
2020/12/22 00:00:06;;;;;;;7.22;6.18;;;8.20;99.90;;;;;;5120332;27;20499;-74
2020/12/22 00:02:33;;;;;;;7.95;6.03;;;8.20;99.90;;;;;;5130091;27;20115;-76
2020/12/22 00:04:59;;;;;;;8.35;6.00;;;8.30;99.90;;;;;;5115596;27;20052;-73
2020/12/22 00:07:25;;;;;;;8.10;6.10;;;8.30;99.90;;;;;;5110295;28;20117;-76
2020/12/22 00:09:51;;;;;;;6.40;5.70;;;8.40;99.90;;;;;;5119352;27;20533;-76
2020/12/22 00:12:18;;;;;;;8.35;5.65;;;8.40;99.90;;;;;;5115653;27;20044;-74
2020/12/22 00:14:45;;;;;;;5.70;5.13;;;8.30;99.90;;;;;;5124036;27;20070;-76
2020/12/22 00:17:12;;;;;;;6.25;5.65;;;8.30;99.90;;;;;;5123296;27;20067;-74
2020/12/22 00:19:38;;;;;;;8.00;5.57;;;8.40;99.90;;;;;;5096880;27;20497;-74
2020/12/22 00:22:05;;;;;;;8.38;5.43;;;8.40;99.90;;;;;;5126857;27;20066;-74
2020/12/22 00:24:31;;;;;;;6.82;5.97;;;8.40;99.90;;;;;;5116740;27;20112;-75
2020/12/22 00:26:58;;;;;;;9.05;5.53;;;8.40;99.90;;;;;;5121342;27;20074;-74
2020/12/22 00:29:48;;;;;;;8.40;5.55;;;8.40;99.90;;;;;;5120199;27;20047;-75
2020/12/22 00:32:16;;;;;;;6.32;5.63;;;8.40;99.90;;;;;;5095368;28;20044;-74
2020/12/22 00:34:42;;;;;;;7.43;5.28;;;8.40;99.90;;;;;;5110305;28;20043;-74
2020/12/22 00:37:08;;;;;;;5.78;5.10;;;8.50;99.90;;;;;;5127523;27;20178;-74
2020/12/22 00:39:35;;;;;;;6.22;4.60;;;8.50;99.90;;;;;;5125121;27;20047;-74
2020/12/22 00:42:01;;;;;;;5.95;4.85;;;8.60;99.90;;;;;;5116682;27;20471;-74
2020/12/22 00:44:28;;;;;;;5.25;4.75;;;8.60;99.90;;;;;;5118463;27;20101;-75
2020/12/22 00:46:54;;;;;;;4.68;4.22;;;8.60;99.90;;;;;;5106597;27;20050;-74
2020/12/22 00:49:22;;;;;;;5.30;4.07;;;8.60;99.90;;;;;;5121366;27;20075;-75
2020/12/22 00:51:48;;;;;;;8.40;4.40;;;8.60;99.90;;;;;;5109007;28;20051;-75
2020/12/22 00:54:14;;;;;;;5.05;4.00;;;8.70;99.90;;;;;;5112707;27;20159;-75
2020/12/22 00:56:42;;;;;;;4.88;3.60;;;8.70;99.90;;;;;;5118486;27;20122;-75
2020/12/22 00:59:08;;;;;;;4.75;3.20;;;8.70;99.90;;;;;;5112558;28;20067;-75
2020/12/22 01:01:34;;;;;;;6.07;3.40;;;8.80;99.90;;;;;;5127454;28;20055;-75
2020/12/22 01:04:01;;;;;;;3.05;2.75;;;8.80;99.90;;;;;;5118742;28;20047;-74
2020/12/22 01:06:35;;;;;;;4.00;3.15;;;8.80;99.90;;;;;;5123922;28;20517;-75
2020/12/22 01:09:01;;;;;;;3.10;2.80;;;8.80;99.90;;;;;;5120863;27;20104;-75
2020/12/22 01:11:33;;;;;;;3.47;3.17;;;8.80;99.90;;;;;;5116737;28;20047;-75
2020/12/22 01:13:59;;;;;;;2.65;2.35;;;8.80;99.90;;;;;;5124367;28;20048;-75
2020/12/22 01:16:25;;;;;;;3.10;2.80;;;8.90;99.90;;;;;;5129605;28;20043;-74
2020/12/22 01:18:51;;;;;;;2.50;2.20;;;8.90;99.90;;;;;;5124794;28;20047;-74
2020/12/22 01:21:19;;;;;;;3.50;2.47;;;8.90;99.90;;;;;;5125965;27;20407;-75
2020/12/22 01:23:47;;;;;;;2.50;1.90;;;9.00;99.90;;;;;;5123974;28;20096;-75
2020/12/22 01:26:21;;;;;;;2.80;1.80;;;9.00;99.90;;;;;;5119708;28;20044;-75
2020/12/22 01:28:48;;;;;;;2.13;1.75;;;9.10;99.90;;;;;;5104430;28;20043;-75
2020/12/22 01:31:30;;;;;;;1.60;1.50;;;9.20;99.90;;;;;;5104924;28;20130;-75
2020/12/22 01:33:58;;;;;;;1.30;1.20;;;9.30;99.90;;;;;;5112035;28;20463;-75
2020/12/22 01:36:26;;;;;;;1.73;1.00;;;9.30;99.90;;;;;;5113881;28;20076;-76
2020/12/22 01:38:53;;;;;;;1.52;1.08;;;9.40;99.90;;;;;;5122398;28;20099;-74
2020/12/22 01:41:20;;;;;;;0.90;0.90;;;9.40;99.90;;;;;;5118730;28;20048;-75
2020/12/22 01:44:04;;;;;;;0.90;0.90;;;9.40;99.90;;;;;;5101526;28;20075;-74
2020/12/22 01:46:36;;;;;;;1.13;1.02;;;9.50;99.90;;;;;;5125195;28;20127;-75
2020/12/22 01:49:08;;;;;;;1.42;0.80;;;9.50;99.90;;;;;;5115604;28;20051;-75
2020/12/22 01:51:35;;;;;;;1.42;0.77;;;9.50;99.90;;;;;;5119089;28;20101;-75
2020/12/22 01:54:02;;;;;;;0.68;0.68;;;9.60;99.90;;;;;;5126742;27;20043;-75
2020/12/22 01:56:30;;;;;;;1.65;0.93;;;9.60;99.90;;;;;;5121357;27;20180;-75
2020/12/22 01:58:57;;;;;;;1.15;0.80;;;9.70;99.90;;;;;;5120091;27;20537;-75
2020/12/22 02:01:23;;;;;;;0.60;0.60;;;9.70;99.90;;;;;;5132041;27;20116;-75
2020/12/22 02:03:50;;;;;;;0.70;0.70;;;9.70;99.90;;;;;;5126410;27;20043;-74
2020/12/22 02:06:16;;;;;;;0.68;0.68;;;9.70;99.90;;;;;;5132578;27;20057;-75
2020/12/22 02:08:42;;;;;;;0.80;0.80;;;9.70;99.90;;;;;;5132140;27;20072;-75
2020/12/22 02:11:09;;;;;;;0.60;0.60;;;9.70;99.90;;;;;;5115727;27;20090;-75
2020/12/22 02:13:35;;;;;;;0.63;0.63;;;9.70;99.90;;;;;;5121062;27;20039;-76
2020/12/22 02:16:02;;;;;;;0.70;0.70;;;9.80;99.90;;;;;;5130770;27;20362;-75
2020/12/22 02:18:30;;;;;;;0.65;0.65;;;9.80;99.90;;;;;;5123764;27;20409;-76
2020/12/22 02:21:02;;;;;;;0.65;0.63;;;9.80;99.90;;;;;;5118623;27;20119;-75
2020/12/22 02:23:29;;;;;;;;;;;9.80;99.90;;;;;;5133143;27;20516;-76
2020/12/22 02:25:55;;;;;;;0.90;0.60;;;9.90;99.90;;;;;;5119565;27;19973;-75
2020/12/22 02:28:22;;;;;;;0.70;0.70;;;9.80;99.90;;;;;;5128235;27;20478;-75
2020/12/22 02:30:49;;;;;;;0.77;0.77;;;9.90;99.90;;;;;;5132258;27;20104;-74
2020/12/22 02:33:16;;;;;;;1.70;0.75;;;9.90;99.90;;;;;;5121156;27;20051;-75
2020/12/22 02:35:42;;;;;;;2.25;0.98;;;9.80;99.90;;;;;;5121018;27;20075;-75
2020/12/22 02:38:09;;;;;;;0.90;0.82;;;9.80;99.90;;;;;;5109065;27;20100;-75
2020/12/22 02:40:35;;;;;;;0.70;0.70;;;9.90;99.90;;;;;;5121725;27;20131;-75
2020/12/22 02:43:12;;;;;;;0.70;0.70;;;9.80;99.90;;;;;;5122835;27;20075;-74
2020/12/22 02:45:43;;;;;;;0.77;0.70;;;9.90;99.90;;;;;;5098507;27;20047;-75
2020/12/22 02:48:11;;;;;;;0.73;0.70;;;9.90;99.90;;;;;;5129321;27;20043;-74
2020/12/22 02:50:38;;;;;;;0.85;0.80;;;9.90;99.90;;;;;;5117034;27;20511;-75
2020/12/22 02:53:06;;;;;;;0.80;0.80;;;9.90;99.90;;;;;;5121233;27;20112;-75
2020/12/22 02:55:34;;;;;;;2.40;0.82;;;10.00;99.90;;;;;;5111124;27;20055;-75
2020/12/22 02:58:00;;;;;;;1.42;1.10;;;9.90;99.90;;;;;;5117419;27;20054;-74
2020/12/22 03:00:27;;;;;;;1.02;0.80;;;9.90;99.90;;;;;;5131776;27;20047;-75
2020/12/22 03:02:53;;;;;;;1.45;0.60;;;9.90;99.90;;;;;;5125444;27;20047;-75
2020/12/22 03:05:20;;;;;;;2.25;0.73;;;9.90;99.90;;;;;;5128344;27;20139;-75
2020/12/22 03:07:46;;;;;;;1.58;0.70;;;10.00;99.90;;;;;;5131286;27;20090;-75
2020/12/22 03:10:14;;;;;;;0.68;0.68;;;10.00;99.90;;;;;;5121435;27;20073;-76
2020/12/22 03:12:41;;;;;;;1.77;0.65;;;10.00;99.90;;;;;;5123672;27;20523;-75
2020/12/22 03:15:09;;;;;;;1.02;0.60;;;10.00;99.90;;;;;;5110802;28;20351;-75
2020/12/22 03:17:37;;;;;;;1.27;0.70;;;10.00;99.90;;;;;;5126957;27;20047;-75
2020/12/22 03:20:06;;;;;;;2.75;0.70;;;9.90;99.90;;;;;;5123837;27;20050;-74
2020/12/22 03:22:37;;;;;;;0.60;0.60;;;9.90;99.90;;;;;;5131429;27;20047;-74
2020/12/22 03:25:07;;;;;;;0.95;0.80;;;9.90;99.90;;;;;;5113907;27;20492;-75
2020/12/22 03:27:33;;;;;;;0.82;0.70;;;10.00;99.90;;;;;;5114174;27;20052;-75
2020/12/22 03:30:00;;;;;;;1.00;0.60;;;10.00;99.90;;;;;;5116841;27;20116;-74
2020/12/22 03:32:27;;;;;;;1.33;0.63;;;9.90;99.90;;;;;;5121122;27;20490;-74
2020/12/22 03:34:54;;;;;;;0.60;0.60;;;10.00;99.90;;;;;;5120353;27;20478;-74
2020/12/22 03:37:20;;;;;;;0.60;0.57;;;9.90;99.90;;;;;;5125474;27;20127;-75
2020/12/22 03:39:52;;;;;;;0.55;0.55;;;10.00;99.90;;;;;;5121323;27;20047;-75
2020/12/22 03:42:19;;;;;;;0.88;0.50;;;10.00;99.90;;;;;;5107074;27;20130;-75
2020/12/22 03:44:47;;;;;;;0.82;0.70;;;10.00;99.90;;;;;;5110420;28;20051;-75
2020/12/22 03:47:15;;;;;;;0.75;0.55;;;10.10;99.90;;;;;;5110873;27;20097;-75
2020/12/22 03:49:43;;;;;;;0.93;0.60;;;10.10;99.90;;;;;;5112021;27;20462;-74
2020/12/22 03:52:10;;;;;;;0.60;0.60;;;10.00;99.90;;;;;;5129605;27;20074;-75
2020/12/22 03:54:37;;;;;;;1.88;0.50;;;10.00;99.90;;;;;;5128198;27;20066;-75
2020/12/22 03:57:05;;;;;;;0.60;0.60;;;10.10;99.90;;;;;;5122919;27;20076;-74
2020/12/22 03:59:35;;;;;;;0.70;0.70;;;10.10;99.90;;;;;;5121023;27;20051;-76
2020/12/22 04:02:03;;;;;;;1.45;0.80;;;10.00;99.90;;;;;;5109197;27;20051;-74
2020/12/22 04:04:30;;;;;;;2.85;0.60;;;10.00;99.90;;;;;;5129763;27;20047;-75
2020/12/22 04:06:56;;;;;;;0.60;0.60;;;10.00;99.90;;;;;;5121038;27;20058;-74
2020/12/22 04:09:23;;;;;;;0.50;0.50;;;10.00;99.90;;;;;;5121878;27;20080;-76
2020/12/22 04:11:51;;;;;;;0.60;0.60;;;10.00;99.90;;;;;;5117235;27;20044;-74
2020/12/22 04:14:22;;;;;;;1.60;0.60;;;10.00;99.90;;;;;;5117681;27;20050;-75
2020/12/22 04:16:49;;;;;;;0.50;0.50;;;10.00;99.90;;;;;;5125870;27;20379;-74
2020/12/22 04:19:16;;;;;;;0.52;0.52;;;10.10;99.90;;;;;;5106251;27;20069;-75
2020/12/22 04:21:43;;;;;;;2.28;0.60;;;10.10;99.90;;;;;;5130423;27;20079;-74
2020/12/22 04:24:10;;;;;;;2.08;0.60;;;10.10;99.90;;;;;;5117059;27;20043;-75
2020/12/22 04:26:36;;;;;;;0.82;0.75;;;10.10;99.90;;;;;;5120133;27;20047;-75
2020/12/22 04:29:03;;;;;;;0.50;0.50;;;10.10;99.90;;;;;;5092658;27;20047;-74
2020/12/22 04:31:30;;;;;;;0.77;0.65;;;10.10;99.90;;;;;;5128257;27;20043;-74
2020/12/22 04:33:58;;;;;;;0.57;0.57;;;10.20;99.90;;;;;;5103589;27;20062;-74
2020/12/22 04:36:25;;;;;;;0.50;0.50;;;10.20;99.90;;;;;;5129605;27;20790;-75
2020/12/22 04:38:52;;;;;;;1.10;0.50;;;10.20;99.90;;;;;;5125673;27;20039;-74
2020/12/22 04:41:20;;;;;;;0.52;0.52;;;10.20;99.90;;;;;;5095744;28;20074;-75
2020/12/22 04:43:48;;;;;;;0.50;0.50;;;10.10;99.90;;;;;;5116361;27;20137;-74
2020/12/22 04:46:20;;;;;;;1.02;0.75;;;10.10;99.90;;;;;;5122379;27;20165;-74
2020/12/22 04:48:57;;;;;;;0.55;0.55;;;10.20;99.90;;;;;;5125700;27;20057;-74
2020/12/22 04:51:25;;;;;;;0.50;0.50;;;10.20;99.90;;;;;;5118559;27;20043;-75
2020/12/22 04:54:07;;;;;;;0.50;0.50;;;10.20;99.90;;;;;;5099556;27;20210;-75
2020/12/22 04:56:35;;;;;;;3.90;0.73;;;10.10;99.90;;;;;;5116569;27;20046;-74
2020/12/22 04:59:02;;;;;;;1.10;0.57;;;10.10;99.90;;;;;;5114955;28;20047;-73
2020/12/22 05:01:30;;;;;;;0.90;0.60;;;10.10;99.90;;;;;;5127946;28;20054;-75
2020/12/22 05:03:56;;;;;;;0.90;0.75;;;10.10;99.90;;;;;;5126908;28;20085;-74
2020/12/22 05:06:23;;;;;;;2.35;0.80;;;10.00;99.90;;;;;;5129593;27;20075;-75
2020/12/22 05:08:50;;;;;;;0.68;0.68;;;10.00;99.90;;;;;;5125039;28;20393;-74
2020/12/22 05:11:16;;;;;;;2.63;0.70;;;10.00;99.90;;;;;;5092892;28;20039;-75
2020/12/22 05:13:46;;;;;;;0.50;0.50;;;10.00;99.90;;;;;;5117476;28;20081;-75
2020/12/22 05:16:12;;;;;;;0.70;0.70;;;10.00;99.90;;;;;;5129574;28;20061;-74
2020/12/22 05:18:38;;;;;;;1.95;0.70;;;10.10;99.90;;;;;;5121653;28;20051;-74
2020/12/22 05:21:19;;;;;;;0.70;0.50;;;10.10;99.90;;;;;;5116871;28;20039;-74
2020/12/22 05:23:50;;;;;;;0.90;0.70;;;10.20;99.90;;;;;;5108340;28;20039;-73
2020/12/22 05:26:21;;;;;;;0.60;0.60;;;10.20;99.90;;;;;;5111388;28;20418;-74
2020/12/22 05:28:49;;;;;;;1.20;0.80;;;10.20;99.90;;;;;;5091764;28;20055;-74
2020/12/22 05:31:16;;;;;;;0.80;0.80;;;10.30;99.90;;;;;;5132364;27;20354;-74
2020/12/22 05:33:46;;;;;;;0.60;0.60;;;10.30;99.90;;;;;;5103657;27;20043;-74
2020/12/22 05:36:13;;;;;;;2.17;0.60;;;10.30;99.90;;;;;;5107793;28;20051;-74
2020/12/22 05:38:43;;;;;;;2.28;0.60;;;10.30;99.90;;;;;;5122083;27;20442;-73
2020/12/22 05:41:10;;;;;;;1.15;0.70;;;10.30;99.90;;;;;;5122263;27;20054;-73
2020/12/22 05:43:41;;;;;;;1.65;0.60;;;10.30;99.90;;;;;;5121902;27;20051;-74
2020/12/22 05:46:09;;;;;;;2.33;0.60;;;10.30;99.90;;;;;;5124563;27;20130;-74
2020/12/22 05:48:37;;;;;;;0.90;0.60;;;10.40;99.90;;;;;;5130658;27;20480;-75
2020/12/22 05:51:08;;;;;;;0.52;0.52;;;10.30;99.90;;;;;;5113179;27;20051;-75
2020/12/22 05:53:42;;;;;;;1.88;0.80;;;10.30;99.90;;;;;;5132304;27;20047;-74
2020/12/22 05:56:18;;;;;;;2.50;1.13;;;10.40;99.90;;;;;;5105030;27;20134;-78
2020/12/22 05:58:45;;;;;;;2.55;0.70;;;10.40;99.90;;;;;;5118782;27;20048;-75
2020/12/22 06:01:12;;;;;;;0.88;0.50;;;10.40;99.90;;;;;;5123524;27;20089;-73
2020/12/22 06:03:41;;;;;;;0.95;0.57;;;10.30;99.90;;;;;;5128609;27;20039;-75
2020/12/22 06:06:08;;;;;;;1.75;0.60;;;10.30;99.90;;;;;;5122966;27;20047;-79
2020/12/22 06:08:36;;;;;;;0.60;0.60;;;10.40;99.90;;;;;;5105027;27;20044;-74
2020/12/22 06:11:03;;;;;;;0.57;0.57;;;10.40;99.90;;;;;;5115652;27;20095;-77
2020/12/22 06:13:30;;;;;;;0.70;0.70;;;10.40;99.90;;;;;;5120953;27;20899;-76
2020/12/22 06:15:57;;;;;;;2.45;0.70;;;10.50;99.90;;;;;;5111552;27;20052;-72
2020/12/22 06:18:23;;;;;;;2.05;0.60;;;10.50;99.90;;;;;;5126356;27;20047;-73
2020/12/22 06:20:50;;;;;;;1.23;0.70;;;10.50;99.90;;;;;;5125964;27;20044;-75
2020/12/22 06:23:19;;;;;;;1.25;0.60;;;10.50;99.90;;;;;;5123045;27;20079;-74
2020/12/22 06:25:46;;;;;;;1.10;0.82;;;10.50;99.90;;;;;;5118209;27;20050;-74
2020/12/22 06:28:28;;;;;;;2.72;0.95;;;10.60;99.90;;;;;;5114565;27;20063;-74
2020/12/22 06:30:55;;;;;;;0.50;0.50;;;10.60;99.90;;;;;;5131008;27;20096;-74
2020/12/22 06:33:35;;;;;;;2.00;0.80;;;10.60;99.90;;;;;;5125154;27;20046;-74
2020/12/22 06:36:07;;;;;;;2.33;0.60;;;10.60;99.90;;;;;;5130248;27;20047;-74
2020/12/22 06:38:49;;;;;;;1.67;0.52;;;10.60;99.90;;;;;;5113482;27;20100;-74
2020/12/22 06:41:26;;;;;;;2.17;0.85;;;10.60;99.90;;;;;;5100758;27;20086;-74
2020/12/22 06:43:56;;;;;;;0.57;0.57;;;10.60;99.90;;;;;;5124834;27;20074;-74
2020/12/22 06:46:35;;;;;;;0.50;0.50;;;10.60;99.90;;;;;;5116896;27;20104;-75
2020/12/22 06:49:02;;;;;;;2.47;0.70;;;10.70;99.90;;;;;;5112060;27;20092;-74
2020/12/22 06:51:31;;;;;;;2.15;0.70;;;10.70;99.90;;;;;;5111284;28;20124;-74
2020/12/22 06:53:59;;;;;;;0.60;0.60;;;10.80;99.90;;;;;;5092358;28;20059;-75
2020/12/22 06:56:39;;;;;;;0.60;0.60;;;10.80;99.90;;;;;;5114465;27;20048;-74
2020/12/22 06:59:06;;;;;;;2.10;0.60;;;10.90;99.90;;;;;;5098813;28;20054;-74
2020/12/22 07:01:37;;;;;;;3.50;0.75;;;10.90;99.90;;;;;;5109909;27;20135;-74
2020/12/22 07:04:21;;;;;;;1.10;0.60;;;10.90;99.90;;;;;;5112894;27;20047;-74
2020/12/22 07:06:52;;;;;;;1.38;0.73;;;11.00;99.90;;;;;;5114967;27;20104;-74
2020/12/22 07:09:20;;;;;;;1.45;0.60;;;11.00;99.90;;;;;;5112799;27;20047;-74
2020/12/22 07:11:52;;;;;;;1.75;0.57;;;11.10;99.90;;;;;;5114621;27;20522;-74
2020/12/22 07:14:21;;;;;;;1.65;0.70;;;11.10;99.90;;;;;;5118152;27;20040;-74
2020/12/22 07:21:13;;;;;;;1.08;0.68;;;11.20;99.90;;;;;;5049808;28;20227;-74
2020/12/22 07:27:25;;;;;;;1.80;0.50;;;11.20;99.90;;;;;;4988894;28;20145;-74
2020/12/22 07:30:28;;;;;;;1.23;0.52;;;11.30;99.90;;;;;;5006918;28;20579;-73
2020/12/22 07:33:24;;;;;;;2.10;0.65;;;11.30;99.90;;;;;;4995736;28;20153;-73
2020/12/22 07:35:50;;;;;;;0.60;0.60;;;11.30;99.90;;;;;;5028269;28;20131;-73
2020/12/22 07:38:17;;;;;;;0.85;0.50;;;11.30;99.90;;;;;;5030195;28;20044;-74
2020/12/22 07:40:43;;;;;;;0.50;0.50;;;11.30;99.90;;;;;;5038391;28;20068;-73
2020/12/22 07:43:12;;;;;;;1.15;0.52;;;11.30;99.90;;;;;;5036253;28;20538;-74
2020/12/22 07:45:49;;;;;;;0.63;0.60;;;11.30;99.90;;;;;;5028025;28;20060;-75
2020/12/22 07:48:16;;;;;;;0.70;0.50;;;11.30;99.90;;;;;;5037628;28;20068;-73
2020/12/22 07:50:43;;;;;;;0.80;0.65;;;11.30;99.90;;;;;;5031513;28;20678;-73
2020/12/22 07:53:10;;;;;;;0.77;0.70;;;11.30;99.90;;;;;;5026878;28;20488;-74
2020/12/22 07:55:40;;;;;;;0.40;0.40;;;11.40;99.90;;;;;;5028186;28;20990;-73
2020/12/22 07:58:12;;;;;;;0.95;0.50;;;11.40;99.90;;;;;;5033584;28;20076;-74
2020/12/22 08:00:40;;;;;;;0.73;0.63;;;11.40;99.90;;;;;;5058905;28;20040;-73
2020/12/22 08:03:17;;;;;;;0.50;0.50;;;11.40;99.90;;;;;;5097258;28;20115;-73
2020/12/22 08:06:03;;;;;;;0.50;0.50;;;11.30;99.90;;;;;;5111489;27;20401;-73
2020/12/22 08:09:30;;;;;;;0.50;0.50;;;11.30;99.90;;;;;;5121418;27;20047;-73
2020/12/22 08:11:59;;;;;;;0.40;0.40;;;11.30;99.90;;;;;;5116402;27;20096;-73
2020/12/22 08:14:27;;;;;;;2.47;0.70;;;11.30;99.90;;;;;;5121788;27;20040;-74
2020/12/22 08:17:01;;;;;;;1.48;0.63;;;11.40;99.90;;;;;;5117819;27;20054;-73
2020/12/22 08:19:34;;;;;;;0.73;0.40;;;11.40;99.90;;;;;;5126358;27;20090;-73
2020/12/22 08:22:02;;;;;;;0.93;0.60;;;11.40;99.90;;;;;;5129479;27;20039;-73
2020/12/22 08:24:30;;;;;;;0.77;0.68;;;11.40;99.90;;;;;;5124287;27;20568;-73
2020/12/22 08:26:57;;;;;;;1.55;0.60;;;11.40;99.90;;;;;;5113298;27;20071;-73
2020/12/22 08:29:23;;;;;;;1.75;0.63;;;11.40;99.90;;;;;;5091928;28;20044;-73
2020/12/22 08:31:54;;;;;;;0.75;0.60;;;11.40;99.90;;;;;;5110163;27;20044;-73
2020/12/22 08:34:20;;;;;;;0.60;0.60;;;11.50;99.90;;;;;;5109333;27;20043;-73
2020/12/22 08:36:48;;;;;;;0.77;0.73;;;11.50;99.90;;;;;;5113956;27;20047;-73
2020/12/22 08:39:17;;;;;;;1.40;0.80;;;11.50;99.90;;;;;;5108334;28;20554;-73
2020/12/22 08:41:51;;;;;;;1.85;0.73;;;11.50;99.90;;;;;;5109372;28;20079;-73
2020/12/22 08:44:19;;;;;;;0.80;0.80;;;11.50;99.90;;;;;;5115110;27;20443;-73
2020/12/22 08:46:46;;;;;;;0.65;0.65;;;11.50;99.90;;;;;;5090460;28;20055;-73
2020/12/22 08:49:32;;;;;;;0.60;0.60;;;11.50;99.90;;;;;;5108747;27;20047;-73
2020/12/22 08:52:10;;;;;;;0.50;0.50;;;11.50;99.90;;;;;;5109184;28;20466;-73
2020/12/22 08:54:38;;;;;;;0.80;0.63;;;11.50;99.90;;;;;;5089878;28;20085;-73
2020/12/22 08:57:15;;;;;;;0.50;0.50;;;11.60;99.90;;;;;;5109195;28;20388;-73
2020/12/22 08:59:42;;;;;;;0.65;0.60;;;11.60;99.90;;;;;;5118709;28;20083;-73
2020/12/22 09:02:29;;;;;;;0.73;0.55;;;11.60;99.90;;;;;;5111909;28;20048;-72
2020/12/22 09:04:57;;;;;;;1.30;0.60;;;11.60;99.90;;;;;;5125366;27;20043;-73
2020/12/22 09:07:27;;;;;;;1.98;0.80;;;11.50;99.90;;;;;;5107936;28;20052;-74
2020/12/22 09:09:54;;;;;;;0.70;0.70;;;11.50;99.90;;;;;;5107546;28;20143;-73
2020/12/22 09:12:21;;;;;;;0.73;0.73;;;11.40;99.90;;;;;;5109632;28;20043;-74
2020/12/22 09:14:48;;;;;;;1.75;0.63;;;11.20;99.90;;;;;;5117056;28;20055;-73
2020/12/22 09:17:29;;;;;;;0.63;0.63;;;11.20;99.90;;;;;;5111970;28;20103;-73
2020/12/22 09:19:56;;;;;;;1.83;0.70;;;11.10;99.90;;;;;;5120895;28;20416;-73
2020/12/22 09:22:28;;;;;;;0.90;0.60;;;11.10;99.90;;;;;;5129740;28;20049;-74
2020/12/22 09:24:57;;;;;;;0.70;0.70;;;11.10;99.90;;;;;;5113830;27;20050;-73
2020/12/22 09:27:38;;;;;;;5.00;1.00;;;11.00;99.90;;;;;;5099057;28;20493;-73
2020/12/22 09:30:13;;;;;;;2.53;1.00;;;11.00;99.90;;;;;;5126171;27;20097;-73
2020/12/22 09:32:41;;;;;;;0.77;0.77;;;11.00;99.90;;;;;;5109481;28;20046;-73
2020/12/22 09:35:08;;;;;;;1.02;0.80;;;10.90;99.90;;;;;;5117498;28;20047;-73
2020/12/22 09:37:34;;;;;;;0.95;0.70;;;10.90;99.90;;;;;;5126493;28;20458;-73
2020/12/22 09:40:00;;;;;;;2.30;0.80;;;10.90;99.90;;;;;;5122108;28;20043;-73
2020/12/22 09:42:27;;;;;;;2.58;1.20;;;10.90;99.90;;;;;;5124356;28;20382;-74
2020/12/22 09:44:55;;;;;;;2.25;1.00;;;10.90;99.90;;;;;;5114640;28;20453;-74
2020/12/22 09:47:21;;;;;;;0.70;0.70;;;11.00;99.90;;;;;;5113474;28;20516;-75
2020/12/22 09:49:48;;;;;;;0.93;0.88;;;11.10;99.90;;;;;;5121946;27;20409;-74
2020/12/22 09:52:14;;;;;;;1.35;0.80;;;11.20;99.90;;;;;;5111215;28;20462;-74
2020/12/22 09:54:41;;;;;;;0.70;0.70;;;11.30;99.90;;;;;;5117897;28;20496;-75
2020/12/22 09:57:08;;;;;;;0.95;0.90;;;11.30;99.90;;;;;;5119677;28;20142;-74
2020/12/22 09:59:34;;;;;;;1.58;0.90;;;11.30;99.90;;;;;;5106638;28;20051;-73
2020/12/22 10:02:01;;;;;;;2.95;1.42;;;11.30;99.90;;;;;;5122858;28;20177;-74
2020/12/22 10:04:28;;;;;;;1.83;0.90;;;11.40;99.90;;;;;;5113310;28;20058;-75
2020/12/22 10:06:55;;;;;;;1.52;0.90;;;11.40;99.90;;;;;;5128478;28;20466;-74
2020/12/22 10:09:21;;;;;;;0.68;0.60;;;11.60;99.90;;;;;;5119041;28;20052;-75
2020/12/22 10:11:48;;;;;;;1.55;0.70;;;12.10;99.90;;;;;;5113263;28;20052;-74
2020/12/22 10:14:15;;;;;;;1.20;0.60;;;12.60;99.90;;;;;;5109458;28;20169;-75
2020/12/22 10:16:41;;;;;;;0.60;0.60;;;12.50;99.90;;;;;;5110477;27;20051;-76
2020/12/22 10:19:10;;;;;;;0.95;0.60;;;12.60;99.90;;;;;;5117737;27;20043;-76
2020/12/22 10:21:37;;;;;;;0.85;0.65;;;12.50;99.90;;;;;;5130642;27;20043;-75
2020/12/22 10:24:06;;;;;;;1.17;0.73;;;12.40;99.90;;;;;;5092883;28;20044;-76
2020/12/22 10:26:34;;;;;;;1.85;0.80;;;12.30;99.90;;;;;;5116317;27;20438;-76
2020/12/22 10:29:01;;;;;;;1.10;0.80;;;12.50;99.90;;;;;;5117267;27;20051;-76
2020/12/22 10:31:28;;;;;;;0.55;0.55;;;12.80;99.90;;;;;;5111382;27;20493;-77
2020/12/22 10:33:58;;;;;;;1.73;0.63;;;12.80;99.90;;;;;;5117385;27;20047;-75
2020/12/22 10:36:26;;;;;;;1.35;0.82;;;12.70;99.90;;;;;;5113509;27;20051;-76
2020/12/22 10:38:55;;;;;;;1.05;0.80;;;12.60;99.90;;;;;;5113832;27;20036;-77
2020/12/22 10:41:23;;;;;;;0.57;0.57;;;12.30;99.90;;;;;;5094799;28;20414;-76
2020/12/22 10:43:51;;;;;;;1.65;0.60;;;12.20;99.90;;;;;;5094388;28;20044;-76
2020/12/22 10:46:18;;;;;;;1.67;0.80;;;12.20;99.90;;;;;;5096243;28;20059;-75
2020/12/22 10:48:46;;;;;;;0.70;0.70;;;12.10;99.90;;;;;;5090721;28;20550;-75
2020/12/22 10:51:13;;;;;;;0.73;0.73;;;12.10;99.90;;;;;;5089581;28;20052;-75
2020/12/22 10:53:40;;;;;;;1.13;0.60;;;12.10;99.90;;;;;;5089496;28;20036;-75
2020/12/22 10:56:09;;;;;;;2.72;0.82;;;12.10;99.90;;;;;;5092740;28;20517;-75
2020/12/22 10:58:37;;;;;;;1.85;0.98;;;12.10;99.90;;;;;;5094342;28;20516;-75
2020/12/22 11:01:04;;;;;;;0.73;0.70;;;12.10;99.90;;;;;;5090921;28;20128;-75
2020/12/22 11:03:31;;;;;;;1.50;0.90;;;12.10;99.90;;;;;;5095599;28;20512;-73
2020/12/22 11:08:43;;;;;;;1.73;0.90;;;12.10;99.90;;;;;;5090459;28;20052;-75
2020/12/22 11:11:10;;;;;;;0.50;0.50;;;12.10;99.90;;;;;;5098550;28;20105;-74
2020/12/22 11:13:37;;;;;;;3.15;0.60;;;12.10;99.90;;;;;;5095021;28;20356;-74
2020/12/22 11:16:05;;;;;;;0.55;0.55;;;12.10;99.90;;;;;;5092227;28;20116;-75
2020/12/22 11:18:33;;;;;;;1.10;0.60;;;12.10;99.90;;;;;;5093678;28;20050;-75
2020/12/22 11:21:00;;;;;;;0.68;0.68;;;12.10;99.90;;;;;;5098957;28;20044;-75
2020/12/22 11:23:42;;;;;;;0.98;0.68;;;12.10;99.90;;;;;;5089968;28;20051;-74
2020/12/22 11:26:10;;;;;;;0.70;0.70;;;12.10;99.90;;;;;;5092340;28;20068;-74
2020/12/22 11:28:38;;;;;;;0.93;0.70;;;12.00;99.90;;;;;;5100248;28;20039;-74
2020/12/22 11:31:04;;;;;;;2.75;0.90;;;12.00;99.90;;;;;;5109482;28;20551;-73
2020/12/22 11:33:32;;;;;;;0.65;0.65;;;12.00;99.90;;;;;;5108228;28;20039;-73
2020/12/22 11:36:03;;;;;;;1.75;0.60;;;12.00;99.90;;;;;;5096486;28;20455;-74
2020/12/22 11:38:38;;;;;;;0.65;0.63;;;11.90;99.90;;;;;;5089730;28;20055;-74
2020/12/22 11:41:06;;;;;;;0.60;0.60;;;12.00;99.90;;;;;;5096893;27;20055;-74
2020/12/22 11:43:33;;;;;;;0.60;0.60;;;12.00;99.90;;;;;;5115040;27;20086;-74
2020/12/22 11:46:00;;;;;;;0.60;0.60;;;12.00;99.90;;;;;;5110173;28;20051;-73
2020/12/22 11:48:27;;;;;;;0.80;0.80;;;12.00;99.90;;;;;;5096976;28;20116;-74
2020/12/22 11:50:55;;;;;;;2.92;1.52;;;12.00;99.90;;;;;;5110026;28;20044;-73
2020/12/22 11:53:21;;;;;;;1.10;1.00;;;12.00;99.90;;;;;;5109520;27;20079;-74
2020/12/22 11:55:48;;;;;;;3.35;1.60;;;12.00;99.90;;;;;;5109544;27;20043;-74
2020/12/22 11:58:14;;;;;;;3.03;1.00;;;12.00;99.90;;;;;;5120331;27;20043;-74
2020/12/22 12:00:41;;;;;;;0.80;0.80;;;12.00;99.90;;;;;;5109854;28;20051;-74
2020/12/22 12:03:07;;;;;;;1.10;1.00;;;12.00;99.90;;;;;;5111366;27;20084;-74
2020/12/22 12:05:34;;;;;;;0.95;0.80;;;12.00;99.90;;;;;;5111567;27;20088;-74
2020/12/22 12:08:00;;;;;;;1.05;0.82;;;12.00;99.90;;;;;;5109749;28;20047;-74
2020/12/22 12:10:28;;;;;;;0.60;0.60;;;12.00;99.90;;;;;;5109488;27;20052;-75
2020/12/22 12:12:54;;;;;;;1.67;0.75;;;12.10;99.90;;;;;;5102169;28;20044;-75
2020/12/22 12:15:20;;;;;;;0.50;0.50;;;12.10;99.90;;;;;;5110364;27;20446;-75
2020/12/22 12:17:47;;;;;;;1.45;0.60;;;12.10;99.90;;;;;;5113889;27;20042;-74
2020/12/22 12:20:13;;;;;;;0.50;0.50;;;12.10;99.90;;;;;;5124699;27;20422;-74
2020/12/22 12:22:40;;;;;;;0.57;0.57;;;12.10;99.90;;;;;;5130623;27;20143;-74
2020/12/22 12:25:06;;;;;;;1.20;0.65;;;12.10;99.90;;;;;;5109065;27;20101;-73
2020/12/22 12:27:32;;;;;;;0.70;0.70;;;12.00;99.90;;;;;;5100707;28;20071;-73
2020/12/22 12:29:59;;;;;;;1.45;0.70;;;12.00;99.90;;;;;;5120273;27;20507;-74
2020/12/22 12:32:31;;;;;;;1.35;0.65;;;12.00;99.90;;;;;;5117730;27;20101;-74
2020/12/22 12:34:58;;;;;;;0.80;0.80;;;12.10;99.90;;;;;;5115261;27;20055;-74
2020/12/22 12:37:29;;;;;;;0.77;0.70;;;12.10;99.90;;;;;;5119271;27;20058;-74
2020/12/22 12:39:56;;;;;;;0.82;0.70;;;12.00;99.90;;;;;;5091708;28;20043;-73
2020/12/22 12:42:29;;;;;;;0.80;0.60;;;11.90;99.90;;;;;;5113750;27;20102;-74
2020/12/22 12:44:55;;;;;;;0.70;0.70;;;12.00;99.90;;;;;;5112790;27;20705;-75
2020/12/22 12:47:22;;;;;;;0.80;0.80;;;11.90;99.90;;;;;;5095944;28;20043;-74
2020/12/22 12:49:49;;;;;;;0.60;0.60;;;11.90;99.90;;;;;;5109855;27;20054;-74
2020/12/22 12:52:16;;;;;;;1.27;0.70;;;11.80;99.90;;;;;;5109136;28;20067;-75
2020/12/22 12:54:43;;;;;;;0.70;0.70;;;11.90;99.90;;;;;;5090658;28;20142;-73
2020/12/22 12:57:09;;;;;;;0.70;0.70;;;11.80;99.90;;;;;;5112864;27;20436;-73
2020/12/22 12:59:45;;;;;;;1.02;0.80;;;11.80;99.90;;;;;;5111820;27;20504;-73
2020/12/22 13:02:13;;;;;;;2.15;1.08;;;11.80;99.90;;;;;;5112923;27;20047;-74
2020/12/22 13:04:40;;;;;;;0.88;0.85;;;11.80;99.90;;;;;;5112798;28;20112;-74
2020/12/22 13:07:07;;;;;;;1.02;0.90;;;11.70;99.90;;;;;;5109091;28;20047;-74
2020/12/22 13:09:33;;;;;;;2.00;1.10;;;11.60;99.90;;;;;;5110471;28;20714;-74